createdAt,value
2022-10-22T00:01:00.917Z,22.67
2022-10-22T00:03:28.932Z,22.57
2022-10-22T00:05:57.047Z,21.53
2022-10-22T00:08:25.069Z,20.93
2022-10-22T00:10:53.378Z,21.27
2022-10-22T00:13:22.759Z,21.33
2022-10-22T00:15:50.721Z,22.27
2022-10-22T00:18:18.643Z,21.57
2022-10-22T00:20:46.580Z,23.17
2022-10-22T00:23:14.859Z,23.47
2022-10-22T00:25:42.993Z,23.13
2022-10-22T00:28:11.533Z,22.60
2022-10-22T00:30:40.793Z,22.37
2022-10-22T00:33:08.710Z,21.77
2022-10-22T00:35:36.760Z,20.60
2022-10-22T00:38:04.934Z,21.73
2022-10-22T00:40:32.926Z,20.53
2022-10-22T00:43:00.885Z,21.43
2022-10-22T00:45:29.808Z,20.60
2022-10-22T00:48:02.723Z,21.13
2022-10-22T00:50:36.567Z,20.77
2022-10-22T00:53:06.056Z,20.00
2022-10-22T00:55:34.464Z,20.67
2022-10-22T00:58:03.394Z,20.20
2022-10-22T01:00:31.832Z,20.33
2022-10-22T01:03:01.902Z,20.13
2022-10-22T01:05:31.923Z,19.63
2022-10-22T01:08:00.288Z,19.80
2022-10-22T01:10:49.861Z,19.30
2022-10-22T01:13:33.946Z,18.77
2022-10-22T01:16:09.890Z,19.17
2022-10-22T01:18:48.900Z,18.90
2022-10-22T01:21:24.641Z,19.97
2022-10-22T01:24:26.521Z,18.70
2022-10-22T01:27:16.380Z,18.03
2022-10-22T01:29:49.481Z,19.03
2022-10-22T01:32:20.305Z,18.33
2022-10-22T01:34:51.782Z,18.30
2022-10-22T01:37:22.939Z,18.57
2022-10-22T01:39:51.692Z,19.53
2022-10-22T01:42:19.937Z,18.70
2022-10-22T01:44:50.201Z,18.43
2022-10-22T01:47:27.705Z,18.17
2022-10-22T01:50:15.458Z,18.67
2022-10-22T01:52:58.932Z,18.83
2022-10-22T01:55:33.282Z,19.00
2022-10-22T01:58:12.090Z,18.17
2022-10-22T02:00:49.120Z,17.90
2022-10-22T02:03:23.817Z,17.97
2022-10-22T02:05:55.717Z,18.43
2022-10-22T02:08:28.215Z,18.27
2022-10-22T02:10:56.875Z,18.47
2022-10-22T02:13:28.450Z,17.70
2022-10-22T02:15:59.927Z,19.10
2022-10-22T02:18:31.043Z,19.07
2022-10-22T02:21:00.209Z,20.70
2022-10-22T02:23:28.956Z,20.73
2022-10-22T02:26:02.609Z,20.53
2022-10-22T02:28:35.936Z,20.10
2022-10-22T02:31:11.205Z,19.80
2022-10-22T02:33:45.514Z,20.57
2022-10-22T02:36:14.588Z,22.13
2022-10-22T02:38:43.216Z,20.20
2022-10-22T02:41:11.484Z,21.40
2022-10-22T02:43:43.738Z,20.53
2022-10-22T02:46:14.445Z,20.37
2022-10-22T02:48:42.546Z,21.90
2022-10-22T02:51:11.071Z,20.87
2022-10-22T02:53:39.499Z,20.63
2022-10-22T02:56:07.989Z,20.83
2022-10-22T02:58:36.239Z,20.83
2022-10-22T03:01:04.414Z,22.17
2022-10-22T03:03:34.135Z,20.80
2022-10-22T03:06:02.445Z,19.67
2022-10-22T03:08:30.971Z,21.33
2022-10-22T03:10:59.264Z,20.80
2022-10-22T03:13:27.244Z,20.97
2022-10-22T03:15:55.427Z,20.47
2022-10-22T03:18:23.600Z,21.10
2022-10-22T03:21:02.754Z,21.40
2022-10-22T03:23:31.598Z,21.50
2022-10-22T03:26:00.673Z,22.63
2022-10-22T03:28:28.791Z,22.07
2022-10-22T03:30:56.729Z,21.53
2022-10-22T03:33:24.880Z,21.70
2022-10-22T03:35:54.575Z,21.23
2022-10-22T03:38:22.560Z,21.33
2022-10-22T03:40:50.730Z,21.43
2022-10-22T03:43:18.892Z,22.20
2022-10-22T03:45:46.943Z,20.73
2022-10-22T03:48:15.383Z,21.50
2022-10-22T03:50:43.376Z,21.33
2022-10-22T03:53:13.140Z,20.23
2022-10-22T03:55:42.844Z,20.43
2022-10-22T03:58:10.797Z,21.67
2022-10-22T04:00:39.045Z,20.33
2022-10-22T04:03:07.115Z,20.90
2022-10-22T04:05:35.283Z,20.57
2022-10-22T04:08:03.379Z,20.43
2022-10-22T04:10:32.820Z,21.23
2022-10-22T04:13:00.796Z,19.47
2022-10-22T04:15:29.111Z,19.43
2022-10-22T04:17:57.223Z,20.17
2022-10-22T04:20:25.154Z,20.40
2022-10-22T04:22:53.149Z,19.53
2022-10-22T04:25:21.074Z,20.93
2022-10-22T04:27:50.316Z,20.27
2022-10-22T04:30:18.414Z,21.53
2022-10-22T04:32:46.390Z,20.97
2022-10-22T04:35:14.389Z,21.37
2022-10-22T04:37:42.705Z,19.77
2022-10-22T04:40:12.480Z,21.27
2022-10-22T04:42:40.422Z,19.90
2022-10-22T04:45:11.085Z,21.10
2022-10-22T04:47:39.277Z,20.70
2022-10-22T04:50:08.444Z,20.07
2022-10-22T04:52:36.387Z,20.37
2022-10-22T04:55:04.435Z,19.90
2022-10-22T04:57:32.787Z,19.83
2022-10-22T05:00:00.730Z,20.13
2022-10-22T05:02:30.035Z,20.57
2022-10-22T05:04:58.104Z,20.73
2022-10-22T05:07:26.165Z,19.77
2022-10-22T05:09:54.740Z,20.57
2022-10-22T05:12:22.698Z,19.43
2022-10-22T05:14:50.633Z,20.20
2022-10-22T05:17:18.604Z,20.93
2022-10-22T05:19:47.934Z,21.37
2022-10-22T05:22:15.852Z,21.70
2022-10-22T05:24:43.834Z,20.87
2022-10-22T05:27:11.836Z,21.13
2022-10-22T05:29:39.789Z,21.63
2022-10-22T05:32:07.707Z,21.93
2022-10-22T05:34:36.181Z,21.37
2022-10-22T05:37:05.480Z,21.33
2022-10-22T05:39:36.671Z,21.57
2022-10-22T05:42:04.968Z,24.07
2022-10-22T05:44:33.022Z,24.93
2022-10-22T05:47:00.972Z,23.77
2022-10-22T05:49:28.875Z,22.80
2022-10-22T05:51:56.804Z,23.27
2022-10-22T05:54:26.088Z,22.87
2022-10-22T05:56:55.601Z,21.40
2022-10-22T05:59:23.630Z,22.37
2022-10-22T06:01:51.771Z,22.53
2022-10-22T06:04:19.910Z,22.73
2022-10-22T06:06:50.236Z,22.77
2022-10-22T06:09:21.342Z,25.37
2022-10-22T06:11:51.501Z,24.73
2022-10-22T06:14:20.434Z,24.57
2022-10-22T06:16:49.004Z,23.80
2022-10-22T06:19:19.812Z,23.80
2022-10-22T06:21:48.539Z,23.13
2022-10-22T06:24:16.868Z,24.67
2022-10-22T06:26:44.933Z,25.10
2022-10-22T06:29:14.266Z,25.00
2022-10-22T06:31:42.264Z,23.80
2022-10-22T06:34:13.292Z,23.43
2022-10-22T06:36:42.710Z,25.50
2022-10-22T06:39:13.065Z,23.90
2022-10-22T06:41:41.113Z,22.90
2022-10-22T06:44:13.722Z,23.40
2022-10-22T06:46:43.608Z,23.37
2022-10-22T06:49:14.907Z,22.93
2022-10-22T06:51:43.193Z,23.13
2022-10-22T06:54:11.650Z,24.30
2022-10-22T06:56:39.619Z,23.47
2022-10-22T06:59:07.558Z,23.70
2022-10-22T07:01:36.770Z,23.40
2022-10-22T07:04:06.853Z,22.90
2022-10-22T07:06:34.913Z,23.83
2022-10-22T07:09:03.098Z,25.37
2022-10-22T07:11:38.730Z,26.33
2022-10-22T07:14:06.787Z,23.77
2022-10-22T07:16:34.757Z,23.27
2022-10-22T07:19:03.341Z,22.57
2022-10-22T07:21:33.376Z,22.90
2022-10-22T07:24:01.471Z,22.13
2022-10-22T07:26:32.712Z,22.60
2022-10-22T07:29:01.338Z,21.93
2022-10-22T07:31:29.562Z,21.43
2022-10-22T07:33:57.643Z,22.57
2022-10-22T07:36:25.626Z,22.13
2022-10-22T07:38:57.749Z,22.23
2022-10-22T07:41:26.510Z,20.80
2022-10-22T07:43:54.408Z,23.07
2022-10-22T07:46:22.430Z,23.27
2022-10-22T07:48:50.588Z,22.40
2022-10-22T07:51:19.233Z,22.73
2022-10-22T07:53:47.360Z,22.47
2022-10-22T07:56:17.683Z,23.03
2022-10-22T07:58:45.681Z,23.37
2022-10-22T08:01:13.716Z,23.87
2022-10-22T08:03:41.726Z,23.03
2022-10-22T08:06:11.504Z,22.87
2022-10-22T08:08:39.522Z,23.47
2022-10-22T08:11:07.856Z,24.37
2022-10-22T08:13:40.433Z,23.20
2022-10-22T08:16:10.751Z,22.17
2022-10-22T08:18:39.463Z,20.93
2022-10-22T08:21:07.915Z,22.83
2022-10-22T08:23:35.833Z,22.93
2022-10-22T08:26:04.202Z,21.93
2022-10-22T08:28:35.933Z,22.93
2022-10-22T08:31:05.421Z,23.40
2022-10-22T08:33:33.396Z,22.70
2022-10-22T08:36:01.441Z,24.07
2022-10-22T08:38:31.274Z,22.47
2022-10-22T08:41:08.744Z,22.93
2022-10-22T08:44:20.578Z,22.37
2022-10-22T08:47:05.078Z,22.20
2022-10-22T08:49:39.713Z,22.93
2022-10-22T08:52:13.789Z,22.60
2022-10-22T08:54:50.225Z,23.27
2022-10-22T08:57:28.146Z,23.27
2022-10-22T09:00:02.995Z,23.93
2022-10-22T09:02:42.180Z,23.20
2022-10-22T09:05:24.914Z,23.53
2022-10-22T09:07:53.143Z,25.07
2022-10-22T09:10:25.594Z,26.03
2022-10-22T09:12:53.581Z,24.57
2022-10-22T09:15:21.789Z,24.40
2022-10-22T09:18:16.966Z,24.43
2022-10-22T09:20:51.319Z,23.97
2022-10-22T09:23:28.795Z,23.20
2022-10-22T09:25:59.061Z,22.97
2022-10-22T09:28:27.213Z,22.50
2022-10-22T09:30:55.227Z,24.63
2022-10-22T09:33:26.816Z,24.80
2022-10-22T09:35:56.705Z,26.47
2022-10-22T09:38:27.716Z,30.57
2022-10-22T09:40:57.710Z,27.87
2022-10-22T09:43:25.648Z,27.77
2022-10-22T09:45:58.505Z,25.53
2022-10-22T09:48:34.466Z,27.33
2022-10-22T09:51:08.513Z,29.10
2022-10-22T09:53:43.351Z,28.13
2022-10-22T09:56:22.096Z,27.83
2022-10-22T09:58:52.176Z,27.83
2022-10-22T10:01:23.556Z,25.47
2022-10-22T10:03:53.324Z,28.70
2022-10-22T10:06:23.126Z,29.77
2022-10-22T10:08:51.804Z,27.40
2022-10-22T10:11:29.430Z,27.80
2022-10-22T10:14:09.406Z,28.33
2022-10-22T10:16:49.822Z,26.23
2022-10-22T10:19:39.080Z,27.13
2022-10-22T10:22:15.256Z,27.63
2022-10-22T10:25:01.830Z,26.83
2022-10-22T10:27:38.107Z,27.70
2022-10-22T10:30:12.701Z,27.73
2022-10-22T10:33:12.152Z,28.13
2022-10-22T10:35:50.686Z,27.27
2022-10-22T10:38:33.109Z,26.97
2022-10-22T10:41:12.075Z,26.87
2022-10-22T10:43:48.503Z,27.47
2022-10-22T10:46:23.219Z,28.67
2022-10-22T10:48:57.027Z,28.40
2022-10-22T10:51:38.533Z,28.70
2022-10-22T10:54:20.087Z,28.33
2022-10-22T10:56:52.253Z,29.97
2022-10-22T10:59:32.445Z,28.17
2022-10-22T11:02:43.629Z,29.57
2022-10-22T11:05:33.448Z,32.73
2022-10-22T11:08:07.574Z,30.37
2022-10-22T11:10:40.169Z,28.97
2022-10-22T11:13:18.360Z,28.50
2022-10-22T11:15:51.508Z,29.63
2022-10-22T11:18:25.207Z,27.63
2022-10-22T11:21:11.146Z,29.97
2022-10-22T11:23:45.270Z,28.70
2022-10-22T11:26:20.436Z,29.97
2022-10-22T11:28:54.447Z,29.00
2022-10-22T11:31:25.354Z,29.37
2022-10-22T11:34:09.727Z,32.43
2022-10-22T11:36:39.981Z,28.93
2022-10-22T11:39:28.233Z,31.03
2022-10-22T11:41:58.897Z,30.77
2022-10-22T11:44:28.407Z,28.80
2022-10-22T11:46:58.083Z,28.57
2022-10-22T11:49:29.172Z,29.30
2022-10-22T11:52:25.710Z,29.23
2022-10-22T11:55:02.477Z,29.73
2022-10-22T11:57:38.511Z,29.73
2022-10-22T12:00:12.514Z,28.97
2022-10-22T12:02:43.992Z,29.50
2022-10-22T12:05:35.263Z,29.27
2022-10-22T12:08:25.226Z,28.03
2022-10-22T12:11:15.556Z,30.00
2022-10-22T12:14:17.475Z,28.27
2022-10-22T12:16:56.497Z,29.53
2022-10-22T12:19:31.986Z,29.27
2022-10-22T12:22:03.625Z,27.37
2022-10-22T12:24:35.770Z,29.00
2022-10-22T12:27:08.225Z,28.33
2022-10-22T12:29:36.693Z,29.73
2022-10-22T12:32:05.824Z,29.53
2022-10-22T12:34:33.931Z,27.90
2022-10-22T12:37:06.688Z,27.30
2022-10-22T12:39:35.568Z,27.70
2022-10-22T12:42:06.712Z,27.87
2022-10-22T12:44:35.086Z,29.73
2022-10-22T12:47:03.318Z,28.67
2022-10-22T12:49:37.574Z,28.70
2022-10-22T12:52:10.874Z,29.03
2022-10-22T12:54:42.365Z,29.23
2022-10-22T12:57:15.266Z,28.63
2022-10-22T12:59:48.889Z,28.03
2022-10-22T13:02:22.586Z,28.20
2022-10-22T13:05:17.027Z,28.03
2022-10-22T13:07:48.090Z,33.47
2022-10-22T13:10:24.485Z,28.87
2022-10-22T13:12:59.015Z,30.83
2022-10-22T13:15:40.440Z,28.83
2022-10-22T13:18:17.666Z,28.20
2022-10-22T13:20:57.257Z,28.23
2022-10-22T13:23:43.302Z,32.23
2022-10-22T13:26:16.777Z,30.17
2022-10-22T13:28:51.713Z,37.23
2022-10-22T13:31:23.752Z,28.70
2022-10-22T13:33:56.218Z,29.27
2022-10-22T13:36:25.237Z,34.57
2022-10-22T13:38:53.306Z,30.03
2022-10-22T13:41:23.994Z,29.87
2022-10-22T13:43:54.007Z,30.90
2022-10-22T13:46:23.079Z,36.83
2022-10-22T13:48:52.659Z,36.50
2022-10-22T13:51:23.738Z,29.57
2022-10-22T13:53:53.893Z,31.83
2022-10-22T13:56:23.961Z,32.93
2022-10-22T13:58:53.610Z,30.70
2022-10-22T14:01:24.148Z,31.17
2022-10-22T14:03:54.525Z,31.07
2022-10-22T14:06:23.690Z,30.07
2022-10-22T14:08:58.405Z,30.30
2022-10-22T14:11:27.316Z,33.30
2022-10-22T14:13:56.806Z,35.30
2022-10-22T14:16:27.469Z,32.47
2022-10-22T14:18:56.654Z,32.10
2022-10-22T14:21:24.855Z,33.73
2022-10-22T14:23:54.144Z,34.90
2022-10-22T14:26:24.964Z,32.87
2022-10-22T14:29:09.859Z,31.97
2022-10-22T14:34:11.603Z,32.60
2022-10-22T14:36:39.694Z,33.00
2022-10-22T14:39:07.766Z,33.23
2022-10-22T14:41:36.090Z,34.70
2022-10-22T14:44:04.172Z,35.87
2022-10-22T14:46:32.215Z,35.53
2022-10-22T14:49:02.885Z,46.93
2022-10-22T14:51:31.034Z,40.20
2022-10-22T14:53:59.051Z,38.27
2022-10-22T14:56:27.209Z,36.53
2022-10-22T14:59:06.294Z,38.33
2022-10-22T15:01:38.922Z,32.87
2022-10-22T15:04:08.259Z,31.87
2022-10-22T15:06:36.670Z,32.13
2022-10-22T15:09:04.912Z,31.70
2022-10-22T15:11:32.996Z,32.13
2022-10-22T15:14:01.857Z,36.57
2022-10-22T15:16:30.057Z,37.07
2022-10-22T15:18:59.726Z,42.10
2022-10-22T15:21:29.246Z,39.27
2022-10-22T15:23:57.410Z,37.50
2022-10-22T15:26:25.517Z,35.87
2022-10-22T15:28:53.511Z,36.00
2022-10-22T15:31:50.020Z,36.10
2022-10-22T15:34:25.362Z,41.03
2022-10-22T15:36:56.573Z,44.43
2022-10-22T15:39:25.316Z,38.43
2022-10-22T15:41:54.412Z,36.43
2022-10-22T15:44:25.200Z,36.37
2022-10-22T15:46:55.159Z,36.97
2022-10-22T15:49:24.116Z,36.90
2022-10-22T15:51:52.510Z,35.13
2022-10-22T15:54:24.299Z,37.43
2022-10-22T15:56:52.447Z,43.77
2022-10-22T15:59:20.586Z,39.00
2022-10-22T16:01:49.059Z,41.90
2022-10-22T16:04:18.782Z,37.50
2022-10-22T16:06:49.437Z,36.10
2022-10-22T16:09:20.020Z,33.17
2022-10-22T16:11:48.372Z,33.67
2022-10-22T16:14:20.029Z,35.23
2022-10-22T16:16:50.071Z,34.17
2022-10-22T16:19:21.665Z,33.47
2022-10-22T16:21:51.923Z,32.73
2022-10-22T16:24:21.108Z,32.90
2022-10-22T16:26:49.950Z,34.40
2022-10-22T16:29:18.017Z,34.57
2022-10-22T16:31:46.159Z,32.53
2022-10-22T16:34:14.671Z,34.73
2022-10-22T16:36:44.670Z,34.13
2022-10-22T16:39:12.771Z,35.53
2022-10-22T16:41:40.873Z,35.20
2022-10-22T16:44:10.983Z,37.67
2022-10-22T16:46:39.113Z,41.53
2022-10-22T16:49:08.207Z,42.63
2022-10-22T16:51:36.699Z,39.70
2022-10-22T16:54:09.696Z,40.53
2022-10-22T16:56:40.329Z,41.60
2022-10-22T16:59:08.805Z,55.47
2022-10-22T17:01:40.985Z,47.73
2022-10-22T17:04:09.653Z,46.03
2022-10-22T17:06:37.790Z,41.27
2022-10-22T17:09:07.615Z,40.43
2022-10-22T17:11:38.153Z,39.07
2022-10-22T17:14:08.355Z,38.17
2022-10-22T17:16:36.479Z,38.87
2022-10-22T17:19:05.420Z,40.17
2022-10-22T17:21:34.054Z,39.57
2022-10-22T17:24:02.284Z,40.17
2022-10-22T17:26:33.271Z,39.67
2022-10-22T17:29:01.733Z,40.47
2022-10-22T17:31:32.606Z,41.70
2022-10-22T17:34:00.880Z,44.40
2022-10-22T17:36:33.292Z,41.80
2022-10-22T17:39:07.179Z,43.73
2022-10-22T17:41:39.206Z,43.27
2022-10-22T17:44:09.941Z,42.07
2022-10-22T17:46:38.605Z,41.27
2022-10-22T17:49:09.550Z,40.50
2022-10-22T17:51:37.783Z,40.33
2022-10-22T17:54:08.806Z,39.97
2022-10-22T17:56:40.243Z,40.57
2022-10-22T17:59:08.519Z,39.17
2022-10-22T18:01:40.258Z,40.87
2022-10-22T18:04:09.452Z,40.10
2022-10-22T18:06:37.639Z,42.10
2022-10-22T18:09:06.653Z,47.10
2022-10-22T18:11:36.598Z,47.50
2022-10-22T18:14:06.597Z,68.57
2022-10-22T18:16:34.939Z,48.43
2022-10-22T18:19:03.565Z,45.97
2022-10-22T18:21:31.907Z,42.80
2022-10-22T18:24:00.214Z,49.60
2022-10-22T18:26:28.377Z,44.07
2022-10-22T18:28:57.364Z,43.90
2022-10-22T18:31:28.224Z,44.83
2022-10-22T18:33:57.157Z,57.03
2022-10-22T18:36:27.300Z,75.77
2022-10-22T18:38:56.874Z,48.00
2022-10-22T18:41:25.573Z,42.03
2022-10-22T18:43:53.957Z,57.37
2022-10-22T18:46:23.943Z,42.70
2022-10-22T18:48:55.255Z,39.43
2022-10-22T18:51:24.019Z,73.50
2022-10-22T18:54:05.482Z,53.37
2022-10-22T18:56:40.200Z,51.53
2022-10-22T18:59:08.214Z,45.93
2022-10-22T19:01:36.223Z,67.00
2022-10-22T19:04:05.858Z,66.97
2022-10-22T19:06:36.735Z,107.93
2022-10-22T19:09:05.313Z,41.77
2022-10-22T19:11:33.762Z,47.03
2022-10-22T19:14:01.777Z,38.70
2022-10-22T19:16:29.835Z,39.13
2022-10-22T19:19:02.302Z,46.87
2022-10-22T19:21:31.906Z,54.13
2022-10-22T19:24:01.509Z,37.13
2022-10-22T19:26:31.198Z,35.80
2022-10-22T19:29:00.210Z,40.17
2022-10-22T19:31:29.892Z,36.53
2022-10-22T19:34:00.325Z,36.10
2022-10-22T19:36:28.832Z,31.53
2022-10-22T19:39:03.539Z,33.53
2022-10-22T19:41:33.854Z,33.53
2022-10-22T19:44:02.149Z,32.50
2022-10-22T19:46:32.626Z,30.17
2022-10-22T19:49:02.647Z,33.00
2022-10-22T19:51:33.315Z,30.27
2022-10-22T19:54:04.571Z,39.97
2022-10-22T19:56:35.442Z,39.97
2022-10-22T19:59:04.673Z,32.00
2022-10-22T20:01:32.947Z,30.87
2022-10-22T20:04:02.490Z,35.67
2022-10-22T20:06:31.225Z,32.30
2022-10-22T20:08:59.711Z,27.90
2022-10-22T20:11:31.035Z,30.47
2022-10-22T20:13:59.775Z,51.43
2022-10-22T20:16:30.085Z,39.73
2022-10-22T20:19:02.239Z,41.60
2022-10-22T20:21:30.842Z,38.93
2022-10-22T20:23:59.045Z,34.50
2022-10-22T20:26:29.538Z,33.00
2022-10-22T20:28:58.352Z,32.13
2022-10-22T20:31:28.552Z,37.87
2022-10-22T20:33:58.643Z,27.90
2022-10-22T20:36:28.651Z,32.10
2022-10-22T20:39:01.759Z,29.63
2022-10-22T20:41:31.598Z,30.07
2022-10-22T20:43:59.817Z,30.40
2022-10-22T20:46:30.126Z,31.37
2022-10-22T20:49:01.087Z,28.17
2022-10-22T20:51:29.162Z,28.77
2022-10-22T20:53:57.274Z,26.57
2022-10-22T20:56:25.496Z,29.57
2022-10-22T20:59:04.251Z,27.50
2022-10-22T21:01:34.404Z,30.33
2022-10-22T21:04:02.584Z,27.10
2022-10-22T21:06:30.739Z,27.17
2022-10-22T21:08:59.013Z,27.67
2022-10-22T21:11:27.167Z,32.77
2022-10-22T21:13:56.521Z,28.67
2022-10-22T21:16:24.648Z,26.10
2022-10-22T21:18:52.683Z,30.10
2022-10-22T21:21:20.684Z,48.77
2022-10-22T21:23:50.158Z,27.57
2022-10-22T21:26:18.352Z,29.67
2022-10-22T21:28:46.690Z,27.37
2022-10-22T21:31:21.867Z,27.83
2022-10-22T21:33:50.883Z,32.10
2022-10-22T21:36:22.763Z,32.43
2022-10-22T21:38:51.589Z,27.27
2022-10-22T21:41:21.034Z,28.77
2022-10-22T21:43:49.355Z,28.83
2022-10-22T21:46:20.886Z,29.30
2022-10-22T21:48:53.116Z,29.27
2022-10-22T21:51:21.714Z,30.40
2022-10-22T21:53:49.709Z,37.53
2022-10-22T21:56:20.155Z,31.07
2022-10-22T21:58:48.526Z,31.00
2022-10-22T22:01:18.491Z,32.33
2022-10-22T22:03:50.052Z,30.17
2022-10-22T22:06:21.424Z,29.50
2022-10-22T22:08:50.923Z,27.67
2022-10-22T22:11:21.190Z,27.73
2022-10-22T22:13:49.647Z,28.43
2022-10-22T22:16:25.419Z,28.07
2022-10-22T22:18:56.696Z,27.43
2022-10-22T22:21:24.763Z,28.07
2022-10-22T22:23:52.972Z,26.67
2022-10-22T22:26:25.480Z,25.47
2022-10-22T22:28:57.060Z,27.53
2022-10-22T22:31:28.635Z,27.33
2022-10-22T22:33:59.742Z,27.73
2022-10-22T22:36:27.724Z,26.90
2022-10-22T22:38:56.905Z,25.93
2022-10-22T22:41:24.934Z,25.30
2022-10-22T22:43:52.916Z,26.17
2022-10-22T22:46:20.844Z,25.90
2022-10-22T22:48:50.937Z,26.50
2022-10-22T22:51:19.239Z,26.00
2022-10-22T22:53:47.608Z,25.20
2022-10-22T22:56:18.350Z,26.63
2022-10-22T22:58:46.823Z,25.93
2022-10-22T23:01:17.510Z,26.13
2022-10-22T23:03:47.265Z,25.27
2022-10-22T23:06:16.912Z,26.83
2022-10-22T23:08:45.047Z,26.23
2022-10-22T23:11:15.003Z,23.50
2022-10-22T23:13:44.096Z,25.03
2022-10-22T23:16:16.655Z,25.07
2022-10-22T23:18:45.364Z,23.93
2022-10-22T23:21:14.874Z,24.30
2022-10-22T23:23:46.180Z,24.03
2022-10-22T23:26:15.411Z,22.53
2022-10-22T23:28:43.358Z,23.60
2022-10-22T23:31:13.510Z,22.63
2022-10-22T23:33:41.710Z,22.30
2022-10-22T23:36:10.705Z,21.47
2022-10-22T23:38:40.109Z,22.57
2022-10-22T23:41:10.269Z,22.50
2022-10-22T23:43:39.154Z,21.40
2022-10-22T23:46:09.202Z,21.50
2022-10-22T23:48:39.038Z,22.60
2022-10-22T23:51:08.901Z,20.37
2022-10-22T23:53:36.855Z,22.73
2022-10-22T23:56:06.293Z,22.63
2022-10-22T23:58:36.692Z,23.80
